sensor_id;sensor_type;location;lat;lon;timestamp;pressure;altitude;pressure_sealevel;temperature;humidity
5988;BME280;3021;51.000;6.980;2023-04-26T00:00:21;66735.06;;;3.93;100.00
5988;BME280;3021;51.000;6.980;2023-04-26T00:02:47;66735.88;;;3.89;100.00
5988;BME280;3021;51.000;6.980;2023-04-26T00:05:13;66731.72;;;3.83;100.00
5988;BME280;3021;51.000;6.980;2023-04-26T00:07:39;66725.53;;;3.80;100.00
5988;BME280;3021;51.000;6.980;2023-04-26T00:10:05;66723.09;;;3.75;100.00
5988;BME280;3021;51.000;6.980;2023-04-26T00:12:31;66711.94;;;3.70;100.00
5988;BME280;3021;51.000;6.980;2023-04-26T00:14:59;66705.03;;;3.64;100.00
5988;BME280;3021;51.000;6.980;2023-04-26T00:17:24;66700.84;;;3.58;100.00
5988;BME280;3021;51.000;6.980;2023-04-26T00:19:50;66695.25;;;3.55;100.00
5988;BME280;3021;51.000;6.980;2023-04-26T00:22:16;66704.84;;;3.61;100.00
5988;BME280;3021;51.000;6.980;2023-04-26T00:24:41;66699.69;;;3.57;100.00
5988;BME280;3021;51.000;6.980;2023-04-26T00:27:07;66697.41;;;3.55;100.00
5988;BME280;3021;51.000;6.980;2023-04-26T00:29:35;66689.38;;;3.48;100.00
5988;BME280;3021;51.000;6.980;2023-04-26T00:32:00;66686.50;;;3.45;100.00
5988;BME280;3021;51.000;6.980;2023-04-26T00:34:34;66685.50;;;3.46;100.00
5988;BME280;3021;51.000;6.980;2023-04-26T00:37:00;66683.22;;;3.44;100.00
5988;BME280;3021;51.000;6.980;2023-04-26T00:39:25;66687.78;;;3.49;100.00
5988;BME280;3021;51.000;6.980;2023-04-26T00:41:51;66689.94;;;3.48;100.00
5988;BME280;3021;51.000;6.980;2023-04-26T00:44:16;66689.38;;;3.48;100.00
5988;BME280;3021;51.000;6.980;2023-04-26T00:46:42;66689.53;;;3.50;100.00
5988;BME280;3021;51.000;6.980;2023-04-26T00:49:07;66686.66;;;3.48;100.00
5988;BME280;3021;51.000;6.980;2023-04-26T00:51:33;66682.06;;;3.43;100.00
5988;BME280;3021;51.000;6.980;2023-04-26T00:54:00;66681.91;;;3.41;100.00
5988;BME280;3021;51.000;6.980;2023-04-26T00:56:26;66680.50;;;3.44;100.00
5988;BME280;3021;51.000;6.980;2023-04-26T00:58:51;66685.34;;;3.44;100.00
5988;BME280;3021;51.000;6.980;2023-04-26T01:01:16;66681.91;;;3.41;100.00
5988;BME280;3021;51.000;6.980;2023-04-26T01:03:42;66679.19;;;3.41;100.00
5988;BME280;3021;51.000;6.980;2023-04-26T01:06:09;66683.63;;;3.42;100.00
5988;BME280;3021;51.000;6.980;2023-04-26T01:08:35;66682.06;;;3.43;100.00
5988;BME280;3021;51.000;6.980;2023-04-26T01:11:01;66688.78;;;3.47;100.00
5988;BME280;3021;51.000;6.980;2023-04-26T01:13:27;66682.78;;;3.46;100.00
5988;BME280;3021;51.000;6.980;2023-04-26T01:15:54;66687.66;;;3.46;100.00
5988;BME280;3021;51.000;6.980;2023-04-26T01:18:20;66678.19;;;3.42;100.00
5988;BME280;3021;51.000;6.980;2023-04-26T01:20:45;66679.59;;;3.39;100.00
5988;BME280;3021;51.000;6.980;2023-04-26T01:23:11;66676.91;;;3.39;100.00
5988;BME280;3021;51.000;6.980;2023-04-26T01:25:36;66671.16;;;3.34;100.00
5988;BME280;3021;51.000;6.980;2023-04-26T01:28:02;66664.09;;;3.25;100.00
5988;BME280;3021;51.000;6.980;2023-04-26T01:30:27;66655.47;;;3.17;100.00
5988;BME280;3021;51.000;6.980;2023-04-26T01:32:53;66653.59;;;3.13;100.00
5988;BME280;3021;51.000;6.980;2023-04-26T01:35:18;66650.31;;;3.13;100.00
5988;BME280;3021;51.000;6.980;2023-04-26T01:37:43;66646.13;;;3.06;100.00
5988;BME280;3021;51.000;6.980;2023-04-26T01:40:09;66645.56;;;3.06;100.00
5988;BME280;3021;51.000;6.980;2023-04-26T01:42:34;66642.09;;;3.03;100.00
5988;BME280;3021;51.000;6.980;2023-04-26T01:45:00;66628.66;;;2.96;100.00
5988;BME280;3021;51.000;6.980;2023-04-26T01:47:25;66635.22;;;2.97;100.00
5988;BME280;3021;51.000;6.980;2023-04-26T01:49:51;66630.22;;;2.94;100.00
5988;BME280;3021;51.000;6.980;2023-04-26T01:52:16;66622.03;;;2.85;100.00
5988;BME280;3021;51.000;6.980;2023-04-26T01:54:42;66608.97;;;2.75;100.00
5988;BME280;3021;51.000;6.980;2023-04-26T01:57:07;66600.53;;;2.70;100.00
5988;BME280;3021;51.000;6.980;2023-04-26T01:59:32;66596.94;;;2.65;100.00
5988;BME280;3021;51.000;6.980;2023-04-26T02:01:58;66592.34;;;2.61;100.00
5988;BME280;3021;51.000;6.980;2023-04-26T02:04:24;66586.59;;;2.55;100.00
5988;BME280;3021;51.000;6.980;2023-04-26T02:06:50;66581.88;;;2.49;100.00
5988;BME280;3021;51.000;6.980;2023-04-26T02:09:15;66577.28;;;2.45;100.00
5988;BME280;3021;51.000;6.980;2023-04-26T02:11:40;66573.84;;;2.41;100.00
5988;BME280;3021;51.000;6.980;2023-04-26T02:14:05;66569.38;;;2.40;100.00
5988;BME280;3021;51.000;6.980;2023-04-26T02:16:31;66567.66;;;2.38;100.00
5988;BME280;3021;51.000;6.980;2023-04-26T02:18:57;66564.81;;;2.36;100.00
5988;BME280;3021;51.000;6.980;2023-04-26T02:21:23;66569.38;;;2.40;100.00
5988;BME280;3021;51.000;6.980;2023-04-26T02:23:49;66566.09;;;2.39;100.00
5988;BME280;3021;51.000;6.980;2023-04-26T02:26:14;66565.38;;;2.36;100.00
5988;BME280;3021;51.000;6.980;2023-04-26T02:28:40;66554.47;;;2.27;100.00
5988;BME280;3021;51.000;6.980;2023-04-26T02:31:06;66542.03;;;2.18;100.00
5988;BME280;3021;51.000;6.980;2023-04-26T02:33:31;66531.13;;;2.08;100.00
5988;BME280;3021;51.000;6.980;2023-04-26T02:35:57;66526.13;;;2.06;100.00
5988;BME280;3021;51.000;6.980;2023-04-26T02:38:23;66534.81;;;2.06;100.00
5988;BME280;3021;51.000;6.980;2023-04-26T02:40:57;66529.66;;;2.02;100.00
5988;BME280;3021;51.000;6.980;2023-04-26T02:43:22;66520.63;;;1.96;100.00
5988;BME280;3021;51.000;6.980;2023-04-26T02:45:47;66522.19;;;1.95;100.00
5988;BME280;3021;51.000;6.980;2023-04-26T02:48:13;66522.03;;;1.93;100.00
5988;BME280;3021;51.000;6.980;2023-04-26T02:50:38;66518.75;;;1.92;100.00
5988;BME280;3021;51.000;6.980;2023-04-26T02:53:04;66514.16;;;1.88;100.00
5988;BME280;3021;51.000;6.980;2023-04-26T02:55:29;66512.44;;;1.86;100.00
5988;BME280;3021;51.000;6.980;2023-04-26T02:57:55;66511.28;;;1.85;100.00
5988;BME280;3021;51.000;6.980;2023-04-26T03:00:20;66509.19;;;1.86;100.00
5988;BME280;3021;51.000;6.980;2023-04-26T03:02:46;66510.16;;;1.84;100.00
5988;BME280;3021;51.000;6.980;2023-04-26T03:05:12;66504.75;;;1.84;100.00
5988;BME280;3021;51.000;6.980;2023-04-26T03:07:37;66509.00;;;1.83;100.00
5988;BME280;3021;51.000;6.980;2023-04-26T03:10:03;66502.69;;;1.78;100.00
5988;BME280;3021;51.000;6.980;2023-04-26T03:12:29;66504.97;;;1.80;100.00
5988;BME280;3021;51.000;6.980;2023-04-26T03:14:55;66502.69;;;1.78;100.00
5988;BME280;3021;51.000;6.980;2023-04-26T03:17:20;66494.97;;;1.76;100.00
5988;BME280;3021;51.000;6.980;2023-04-26T03:19:45;66496.97;;;1.72;100.00
5988;BME280;3021;51.000;6.980;2023-04-26T03:22:11;66490.81;;;1.69;100.00
5988;BME280;3021;51.000;6.980;2023-04-26T03:24:41;66499.09;;;1.72;100.00
5988;BME280;3021;51.000;6.980;2023-04-26T03:27:06;66489.66;;;1.68;100.00
5988;BME280;3021;51.000;6.980;2023-04-26T03:29:32;66484.50;;;1.64;100.00
5988;BME280;3021;51.000;6.980;2023-04-26T03:31:57;66484.50;;;1.64;100.00
5988;BME280;3021;51.000;6.980;2023-04-26T03:34:22;66476.06;;;1.59;100.00
5988;BME280;3021;51.000;6.980;2023-04-26T03:36:48;66471.50;;;1.54;100.00
5988;BME280;3021;51.000;6.980;2023-04-26T03:39:13;66474.75;;;1.55;100.00
5988;BME280;3021;51.000;6.980;2023-04-26T03:41:38;66465.19;;;1.49;100.00
5988;BME280;3021;51.000;6.980;2023-04-26T03:44:04;66463.31;;;1.45;100.00
5988;BME280;3021;51.000;6.980;2023-04-26T03:46:30;66462.72;;;1.44;100.00
5988;BME280;3021;51.000;6.980;2023-04-26T03:48:55;66465.03;;;1.46;100.00
5988;BME280;3021;51.000;6.980;2023-04-26T03:51:20;66461.16;;;1.45;100.00
5988;BME280;3021;51.000;6.980;2023-04-26T03:53:46;66463.31;;;1.45;100.00
5988;BME280;3021;51.000;6.980;2023-04-26T03:56:13;66461.25;;;1.38;100.00
5988;BME280;3021;51.000;6.980;2023-04-26T03:58:38;66456.41;;;1.38;100.00
5988;BME280;3021;51.000;6.980;2023-04-26T04:01:03;66465.41;;;1.44;100.00
5988;BME280;3021;51.000;6.980;2023-04-26T04:03:29;66464.59;;;1.48;100.00
5988;BME280;3021;51.000;6.980;2023-04-26T04:05:54;66461.59;;;1.43;100.00
5988;BME280;3021;51.000;6.980;2023-04-26T04:08:20;66449.38;;;1.30;100.00
5988;BME280;3021;51.000;6.980;2023-04-26T04:10:48;66440.94;;;1.25;100.00
5988;BME280;3021;51.000;6.980;2023-04-26T04:13:13;66436.94;;;1.21;100.00
5988;BME280;3021;51.000;6.980;2023-04-26T04:15:39;66438.66;;;1.23;100.00
5988;BME280;3021;51.000;6.980;2023-04-26T04:18:04;66432.94;;;1.17;100.00
5988;BME280;3021;51.000;6.980;2023-04-26T04:20:29;66433.50;;;1.18;100.00
5988;BME280;3021;51.000;6.980;2023-04-26T04:22:55;66438.66;;;1.23;100.00
5988;BME280;3021;51.000;6.980;2023-04-26T04:25:22;66444.38;;;1.28;100.00
5988;BME280;3021;51.000;6.980;2023-04-26T04:27:48;66444.78;;;1.26;100.00
5988;BME280;3021;51.000;6.980;2023-04-26T04:30:14;66445.13;;;1.31;100.00
5988;BME280;3021;51.000;6.980;2023-04-26T04:32:40;66457.97;;;1.37;100.00
5988;BME280;3021;51.000;6.980;2023-04-26T04:35:09;66455.84;;;1.38;100.00
5988;BME280;3021;51.000;6.980;2023-04-26T04:37:34;66466.75;;;1.48;100.00
5988;BME280;3021;51.000;6.980;2023-04-26T04:40:00;66469.59;;;1.50;100.00
5988;BME280;3021;51.000;6.980;2023-04-26T04:42:25;66476.66;;;1.59;100.00
5988;BME280;3021;51.000;6.980;2023-04-26T04:44:53;66486.06;;;1.63;100.00
5988;BME280;3021;51.000;6.980;2023-04-26T04:47:19;66489.09;;;1.68;100.00
5988;BME280;3021;51.000;6.980;2023-04-26T04:49:44;66498.09;;;1.73;100.00
5988;BME280;3021;51.000;6.980;2023-04-26T04:52:10;66508.59;;;1.85;100.00
5988;BME280;3021;51.000;6.980;2023-04-26T04:54:35;66518.91;;;1.95;100.00
5988;BME280;3021;51.000;6.980;2023-04-26T04:57:01;66532.84;;;2.10;100.00
5988;BME280;3021;51.000;6.980;2023-04-26T04:59:27;66555.63;;;2.28;100.00
5988;BME280;3021;51.000;6.980;2023-04-26T05:01:53;66579.72;;;2.49;100.00
5988;BME280;3021;51.000;6.980;2023-04-26T05:04:18;66616.44;;;2.82;100.00
5988;BME280;3021;51.000;6.980;2023-04-26T05:06:43;66656.47;;;3.16;100.00
5988;BME280;3021;51.000;6.980;2023-04-26T05:09:09;66691.25;;;3.52;100.00
5988;BME280;3021;51.000;6.980;2023-04-26T05:11:35;66742.38;;;3.97;100.00
5988;BME280;3021;51.000;6.980;2023-04-26T05:14:00;66804.28;;;4.50;100.00
5988;BME280;3021;51.000;6.980;2023-04-26T05:16:26;66829.00;;;4.73;100.00
5988;BME280;3021;51.000;6.980;2023-04-26T05:18:51;66868.09;;;5.08;100.00
5988;BME280;3021;51.000;6.980;2023-04-26T05:21:17;66925.78;;;5.62;100.00
5988;BME280;3021;51.000;6.980;2023-04-26T05:23:42;66983.34;;;6.13;100.00
5988;BME280;3021;51.000;6.980;2023-04-26T05:26:13;67098.09;;;7.18;100.00
5988;BME280;3021;51.000;6.980;2023-04-26T05:28:39;67422.94;;;10.08;100.00
5988;BME280;3021;51.000;6.980;2023-04-26T05:31:05;67697.91;;;12.58;100.00
5988;BME280;3021;51.000;6.980;2023-04-26T05:33:30;67952.72;;;14.82;100.00
5988;BME280;3021;51.000;6.980;2023-04-26T05:35:55;67997.25;;;15.19;100.00
5988;BME280;3021;51.000;6.980;2023-04-26T05:38:22;68105.47;;;16.20;100.00
5988;BME280;3021;51.000;6.980;2023-04-26T05:40:47;68301.84;;;17.94;100.00
5988;BME280;3021;51.000;6.980;2023-04-26T05:43:13;68461.25;;;19.35;100.00
5988;BME280;3021;51.000;6.980;2023-04-26T05:45:39;68403.03;;;18.83;100.00
5988;BME280;3021;51.000;6.980;2023-04-26T05:48:04;68245.31;;;17.41;100.00
5988;BME280;3021;51.000;6.980;2023-04-26T05:50:30;68235.00;;;17.35;100.00
5988;BME280;3021;51.000;6.980;2023-04-26T05:52:55;68302.44;;;17.94;100.00
5988;BME280;3021;51.000;6.980;2023-04-26T05:55:21;68450.31;;;19.28;100.00
5988;BME280;3021;51.000;6.980;2023-04-26T05:57:46;68571.97;;;20.35;100.00
5988;BME280;3021;51.000;6.980;2023-04-26T06:00:12;68620.34;;;20.78;100.00
5988;BME280;3021;51.000;6.980;2023-04-26T06:02:38;68719.91;;;21.64;100.00
5988;BME280;3021;51.000;6.980;2023-04-26T06:05:03;68767.34;;;22.10;98.96
5988;BME280;3021;51.000;6.980;2023-04-26T06:07:31;68830.13;;;22.61;97.35
5988;BME280;3021;51.000;6.980;2023-04-26T06:09:56;68934.25;;;23.58;92.86
5988;BME280;3021;51.000;6.980;2023-04-26T06:12:21;68985.50;;;24.01;90.20
5988;BME280;3021;51.000;6.980;2023-04-26T06:14:47;68952.09;;;23.69;90.77
5988;BME280;3021;51.000;6.980;2023-04-26T06:17:12;68960.41;;;23.78;89.69
5988;BME280;3021;51.000;6.980;2023-04-26T06:19:38;69049.31;;;24.59;86.94
5988;BME280;3021;51.000;6.980;2023-04-26T06:22:03;69036.78;;;24.43;88.14
5988;BME280;3021;51.000;6.980;2023-04-26T06:24:29;68970.19;;;23.85;87.11
5988;BME280;3021;51.000;6.980;2023-04-26T06:26:54;68826.72;;;22.60;88.33
5988;BME280;3021;51.000;6.980;2023-04-26T06:29:20;68833.63;;;22.64;88.25
5988;BME280;3021;51.000;6.980;2023-04-26T06:31:45;68841.78;;;22.71;87.22
5988;BME280;3021;51.000;6.980;2023-04-26T06:34:11;68977.25;;;23.91;86.09
5988;BME280;3021;51.000;6.980;2023-04-26T06:36:36;69064.75;;;24.65;81.99
5988;BME280;3021;51.000;6.980;2023-04-26T06:39:01;69012.25;;;24.22;82.28
5988;BME280;3021;51.000;6.980;2023-04-26T06:41:27;69025.81;;;24.36;82.18
5988;BME280;3021;51.000;6.980;2023-04-26T06:43:52;68917.06;;;23.38;81.52
5988;BME280;3021;51.000;6.980;2023-04-26T06:46:17;68758.94;;;21.98;84.93
5988;BME280;3021;51.000;6.980;2023-04-26T06:48:43;68569.53;;;20.31;91.00
5988;BME280;3021;51.000;6.980;2023-04-26T06:51:08;68433.63;;;19.06;93.96
5988;BME280;3021;51.000;6.980;2023-04-26T06:53:36;68355.34;;;18.41;100.00
5988;BME280;3021;51.000;6.980;2023-04-26T06:56:02;68356.94;;;18.40;100.00
5988;BME280;3021;51.000;6.980;2023-04-26T06:58:28;68470.41;;;19.41;100.00
5988;BME280;3021;51.000;6.980;2023-04-26T07:00:53;68662.75;;;21.13;94.96
5988;BME280;3021;51.000;6.980;2023-04-26T07:03:18;68775.97;;;22.16;88.46
5988;BME280;3021;51.000;6.980;2023-04-26T07:05:44;68756.59;;;21.96;86.97
5988;BME280;3021;51.000;6.980;2023-04-26T07:08:09;68757.22;;;21.97;88.87
5988;BME280;3021;51.000;6.980;2023-04-26T07:10:36;68621.97;;;20.77;89.58
5988;BME280;3021;51.000;6.980;2023-04-26T07:13:01;68470.41;;;19.41;95.16
5988;BME280;3021;51.000;6.980;2023-04-26T07:15:27;68343.56;;;18.28;98.86
5988;BME280;3021;51.000;6.980;2023-04-26T07:17:52;68205.81;;;17.06;100.00
5988;BME280;3021;51.000;6.980;2023-04-26T07:20:17;68163.38;;;16.69;100.00
5988;BME280;3021;51.000;6.980;2023-04-26T07:22:47;68123.78;;;16.31;100.00
5988;BME280;3021;51.000;6.980;2023-04-26T07:25:12;68073.28;;;15.86;100.00
5988;BME280;3021;51.000;6.980;2023-04-26T07:27:37;68003.75;;;15.27;100.00
5988;BME280;3021;51.000;6.980;2023-04-26T07:30:03;67987.97;;;15.11;100.00
5988;BME280;3021;51.000;6.980;2023-04-26T07:32:29;67943.31;;;14.71;100.00
5988;BME280;3021;51.000;6.980;2023-04-26T07:34:55;67963.00;;;14.89;100.00
5988;BME280;3021;51.000;6.980;2023-04-26T07:37:20;68001.31;;;15.23;100.00
5988;BME280;3021;51.000;6.980;2023-04-26T07:39:46;68029.28;;;15.50;100.00
5988;BME280;3021;51.000;6.980;2023-04-26T07:42:11;67865.00;;;14.02;100.00
5988;BME280;3021;51.000;6.980;2023-04-26T07:44:36;67768.53;;;13.21;100.00
5988;BME280;3021;51.000;6.980;2023-04-26T07:47:02;67823.88;;;13.65;100.00
5988;BME280;3021;51.000;6.980;2023-04-26T07:49:27;67895.16;;;14.28;100.00
5988;BME280;3021;51.000;6.980;2023-04-26T07:51:52;67928.34;;;14.60;100.00
5988;BME280;3021;51.000;6.980;2023-04-26T07:54:19;68006.50;;;15.27;100.00
5988;BME280;3021;51.000;6.980;2023-04-26T07:56:44;68053.22;;;15.73;100.00
5988;BME280;3021;51.000;6.980;2023-04-26T07:59:10;68068.06;;;15.82;100.00
5988;BME280;3021;51.000;6.980;2023-04-26T08:01:35;68073.84;;;15.87;100.00
5988;BME280;3021;51.000;6.980;2023-04-26T08:04:00;68070.38;;;15.84;100.00
5988;BME280;3021;51.000;6.980;2023-04-26T08:06:26;68058.88;;;15.76;100.00
5988;BME280;3021;51.000;6.980;2023-04-26T08:08:54;68018.41;;;15.43;100.00
5988;BME280;3021;51.000;6.980;2023-04-26T08:11:19;67994.50;;;15.19;100.00
5988;BME280;3021;51.000;6.980;2023-04-26T08:13:44;68047.84;;;15.66;100.00
5988;BME280;3021;51.000;6.980;2023-04-26T08:16:10;68106.34;;;16.16;100.00
5988;BME280;3021;51.000;6.980;2023-04-26T08:18:36;68107.50;;;16.17;100.00
5988;BME280;3021;51.000;6.980;2023-04-26T08:21:01;68121.00;;;16.31;100.00
5988;BME280;3021;51.000;6.980;2023-04-26T08:23:26;68097.19;;;16.10;100.00
5988;BME280;3021;51.000;6.980;2023-04-26T08:25:52;68132.75;;;16.44;100.00
5988;BME280;3021;51.000;6.980;2023-04-26T08:28:18;68207.09;;;17.10;100.00
5988;BME280;3021;51.000;6.980;2023-04-26T08:30:43;68191.88;;;16.94;100.00
5988;BME280;3021;51.000;6.980;2023-04-26T08:33:09;68223.97;;;17.25;100.00
5988;BME280;3021;51.000;6.980;2023-04-26T08:35:34;68313.94;;;18.02;100.00
5988;BME280;3021;51.000;6.980;2023-04-26T08:37:59;68572.75;;;20.29;100.00
5988;BME280;3021;51.000;6.980;2023-04-26T08:40:25;68830.13;;;22.61;89.56
5988;BME280;3021;51.000;6.980;2023-04-26T08:42:51;68969.75;;;23.87;85.89
5988;BME280;3021;51.000;6.980;2023-04-26T08:45:18;69053.75;;;24.58;82.39
5988;BME280;3021;51.000;6.980;2023-04-26T08:47:50;68809.00;;;22.40;84.69
5988;BME280;3021;51.000;6.980;2023-04-26T08:50:19;68552.63;;;20.16;87.45
5988;BME280;3021;51.000;6.980;2023-04-26T08:52:47;68393.16;;;18.75;90.53
5988;BME280;3021;51.000;6.980;2023-04-26T08:55:13;68286.72;;;17.81;92.56
5988;BME280;3021;51.000;6.980;2023-04-26T08:57:41;68149.47;;;16.56;95.00
5988;BME280;3021;51.000;6.980;2023-04-26T09:00:08;68084.44;;;15.99;97.10
5988;BME280;3021;51.000;6.980;2023-04-26T09:02:41;68119.13;;;16.27;97.16
5988;BME280;3021;51.000;6.980;2023-04-26T09:05:07;68204.09;;;17.05;100.00
5988;BME280;3021;51.000;6.980;2023-04-26T09:07:45;68302.88;;;17.92;95.19
5988;BME280;3021;51.000;6.980;2023-04-26T09:10:13;68331.06;;;18.22;92.20
5988;BME280;3021;51.000;6.980;2023-04-26T09:12:39;68319.63;;;18.05;93.08
5988;BME280;3021;51.000;6.980;2023-04-26T09:15:05;68195.94;;;16.98;91.19
5988;BME280;3021;51.000;6.980;2023-04-26T09:17:35;68309.28;;;17.98;92.59
5988;BME280;3021;51.000;6.980;2023-04-26T09:20:26;68637.00;;;20.88;86.33
5988;BME280;3021;51.000;6.980;2023-04-26T09:22:53;68933.53;;;23.55;81.52
5988;BME280;3021;51.000;6.980;2023-04-26T09:25:30;68984.25;;;23.97;78.42
5988;BME280;3021;51.000;6.980;2023-04-26T09:27:56;68896.09;;;23.19;79.84
5988;BME280;3021;51.000;6.980;2023-04-26T09:30:22;68826.63;;;22.58;80.25
5988;BME280;3021;51.000;6.980;2023-04-26T09:35:37;69125.63;;;25.22;75.37
5988;BME280;3021;51.000;6.980;2023-04-26T09:38:16;69136.28;;;25.33;74.82
5988;BME280;3021;51.000;6.980;2023-04-26T09:40:51;68903.53;;;23.23;75.36
5988;BME280;3021;51.000;6.980;2023-04-26T09:43:18;68850.66;;;22.82;79.04
5988;BME280;3021;51.000;6.980;2023-04-26T09:50:50;68936.94;;;23.55;74.82
5988;BME280;3021;51.000;6.980;2023-04-26T09:53:37;68763.16;;;22.04;77.19
5988;BME280;3021;51.000;6.980;2023-04-26T09:56:09;68586.28;;;20.43;79.73
5988;BME280;3021;51.000;6.980;2023-04-26T09:58:58;68589.78;;;20.46;80.67
5988;BME280;3021;51.000;6.980;2023-04-26T10:01:26;68976.53;;;23.88;76.19
5988;BME280;3021;51.000;6.980;2023-04-26T10:03:55;69333.97;;;27.07;72.42
5988;BME280;3021;51.000;6.980;2023-04-26T10:06:23;69298.78;;;26.74;68.07
5988;BME280;3021;51.000;6.980;2023-04-26T10:08:49;68953.28;;;23.70;69.78
5988;BME280;3021;51.000;6.980;2023-04-26T10:11:14;68714.63;;;21.59;73.41
5988;BME280;3021;51.000;6.980;2023-04-26T10:13:41;68670.31;;;21.20;76.08
5988;BME280;3021;51.000;6.980;2023-04-26T10:16:07;69045.56;;;24.51;71.75
5988;BME280;3021;51.000;6.980;2023-04-26T10:18:34;69148.44;;;25.42;68.49
5988;BME280;3021;51.000;6.980;2023-04-26T10:21:10;68832.44;;;22.63;71.46
5988;BME280;3021;51.000;6.980;2023-04-26T10:23:37;68756.03;;;21.96;73.33
5988;BME280;3021;51.000;6.980;2023-04-26T10:26:02;68779.94;;;22.17;75.68
5988;BME280;3021;51.000;6.980;2023-04-26T10:31:09;68574.78;;;20.35;71.09
5988;BME280;3021;51.000;6.980;2023-04-26T10:33:34;68386.03;;;18.66;73.16
5988;BME280;3021;51.000;6.980;2023-04-26T10:38:25;68279.59;;;17.72;77.19
5988;BME280;3021;51.000;6.980;2023-04-26T10:40:51;68314.63;;;18.05;78.15
5988;BME280;3021;51.000;6.980;2023-04-26T10:45:47;69031.53;;;24.39;70.15
5988;BME280;3021;51.000;6.980;2023-04-26T10:48:28;69143.88;;;25.40;67.71
5988;BME280;3021;51.000;6.980;2023-04-26T10:56:09;68775.84;;;22.13;71.94
5988;BME280;3021;51.000;6.980;2023-04-26T10:58:39;68713.94;;;21.56;70.87
5988;BME280;3021;51.000;6.980;2023-04-26T11:03:39;68611.34;;;20.65;74.66
5988;BME280;3021;51.000;6.980;2023-04-26T11:06:05;68557.91;;;20.20;73.68
5988;BME280;3021;51.000;6.980;2023-04-26T11:08:31;68537.25;;;19.97;72.91
5988;BME280;3021;51.000;6.980;2023-04-26T11:13:38;68479.72;;;19.49;73.34
5988;BME280;3021;51.000;6.980;2023-04-26T11:16:09;68500.09;;;19.67;73.84
5988;BME280;3021;51.000;6.980;2023-04-26T11:18:37;68421.66;;;19.00;74.80
5988;BME280;3021;51.000;6.980;2023-04-26T11:21:04;68410.59;;;18.90;76.08
5988;BME280;3021;51.000;6.980;2023-04-26T11:23:30;68451.09;;;19.21;76.01
5988;BME280;3021;51.000;6.980;2023-04-26T11:26:00;68393.59;;;18.73;76.18
5988;BME280;3021;51.000;6.980;2023-04-26T11:28:33;68356.94;;;18.40;77.71
5988;BME280;3021;51.000;6.980;2023-04-26T11:30:59;68332.38;;;18.16;78.43
5988;BME280;3021;51.000;6.980;2023-04-26T11:33:24;68329.75;;;18.19;77.73
5988;BME280;3021;51.000;6.980;2023-04-26T11:35:54;68386.63;;;18.67;80.74
5988;BME280;3021;51.000;6.980;2023-04-26T11:38:27;68400.00;;;18.78;75.65
5988;BME280;3021;51.000;6.980;2023-04-26T11:40:56;68442.47;;;19.16;77.22
5988;BME280;3021;51.000;6.980;2023-04-26T11:43:22;68477.84;;;19.45;77.46
5988;BME280;3021;51.000;6.980;2023-04-26T11:45:57;68501.84;;;19.68;77.25
5988;BME280;3021;51.000;6.980;2023-04-26T11:48:23;68492.97;;;19.58;75.33
5988;BME280;3021;51.000;6.980;2023-04-26T11:50:49;68466.19;;;19.34;75.56
5988;BME280;3021;51.000;6.980;2023-04-26T11:53:15;68441.91;;;19.15;72.98
5988;BME280;3021;51.000;6.980;2023-04-26T11:55:40;68372.66;;;18.54;74.21
5988;BME280;3021;51.000;6.980;2023-04-26T11:58:11;68318.44;;;18.04;76.62
5988;BME280;3021;51.000;6.980;2023-04-26T12:00:36;68260.44;;;17.55;79.24
5988;BME280;3021;51.000;6.980;2023-04-26T12:03:05;68142.03;;;16.52;79.67
5988;BME280;3021;51.000;6.980;2023-04-26T12:05:35;68127.84;;;16.35;81.95
5988;BME280;3021;51.000;6.980;2023-04-26T12:08:00;68122.75;;;16.33;81.57
5988;BME280;3021;51.000;6.980;2023-04-26T12:10:35;68115.19;;;16.26;82.81
5988;BME280;3021;51.000;6.980;2023-04-26T12:13:02;68155.84;;;16.62;83.97
5988;BME280;3021;51.000;6.980;2023-04-26T12:15:31;68094.88;;;16.08;81.58
5988;BME280;3021;51.000;6.980;2023-04-26T12:18:09;68063.38;;;15.78;83.31
5988;BME280;3021;51.000;6.980;2023-04-26T12:20:39;68078.50;;;15.91;83.37
5988;BME280;3021;51.000;6.980;2023-04-26T12:23:09;68130.88;;;16.40;84.05
5988;BME280;3021;51.000;6.980;2023-04-26T12:25:37;68113.34;;;16.22;83.41
5988;BME280;3021;51.000;6.980;2023-04-26T12:28:04;68101.72;;;16.12;84.08
5988;BME280;3021;51.000;6.980;2023-04-26T12:30:30;68116.34;;;16.27;84.30
5988;BME280;3021;51.000;6.980;2023-04-26T12:32:56;68100.56;;;16.11;83.75
5988;BME280;3021;51.000;6.980;2023-04-26T12:35:22;68079.66;;;15.92;83.95
5988;BME280;3021;51.000;6.980;2023-04-26T12:37:49;68118.69;;;16.29;84.08
5988;BME280;3021;51.000;6.980;2023-04-26T12:40:16;68121.47;;;16.29;84.08
5988;BME280;3021;51.000;6.980;2023-04-26T12:42:45;68080.50;;;15.98;83.40
5988;BME280;3021;51.000;6.980;2023-04-26T12:45:11;68051.34;;;15.69;82.81
5988;BME280;3021;51.000;6.980;2023-04-26T12:47:36;68063.53;;;15.80;83.89
5988;BME280;3021;51.000;6.980;2023-04-26T12:50:02;68083.84;;;15.98;84.80
5988;BME280;3021;51.000;6.980;2023-04-26T12:52:29;68103.00;;;16.15;84.59
5988;BME280;3021;51.000;6.980;2023-04-26T12:54:55;68095.31;;;16.06;87.21
5988;BME280;3021;51.000;6.980;2023-04-26T12:57:20;68052.94;;;15.68;86.48
5988;BME280;3021;51.000;6.980;2023-04-26T12:59:46;68036.22;;;15.56;85.35
5988;BME280;3021;51.000;6.980;2023-04-26T13:02:11;68011.75;;;15.32;85.73
5988;BME280;3021;51.000;6.980;2023-04-26T13:04:37;68001.31;;;15.23;85.81
5988;BME280;3021;51.000;6.980;2023-04-26T13:07:03;67973.00;;;15.00;86.62
5988;BME280;3021;51.000;6.980;2023-04-26T13:09:28;67941.72;;;14.72;88.11
5988;BME280;3021;51.000;6.980;2023-04-26T13:11:56;67957.81;;;14.84;88.42
5988;BME280;3021;51.000;6.980;2023-04-26T13:14:21;67947.94;;;14.75;87.47
5988;BME280;3021;51.000;6.980;2023-04-26T13:16:48;67870.25;;;14.06;88.80
5988;BME280;3021;51.000;6.980;2023-04-26T13:19:16;67847.06;;;13.86;92.56
5988;BME280;3021;51.000;6.980;2023-04-26T13:21:41;67869.66;;;14.06;96.21
5988;BME280;3021;51.000;6.980;2023-04-26T13:24:07;67886.47;;;14.21;93.45
5988;BME280;3021;51.000;6.980;2023-04-26T13:26:32;67872.13;;;14.10;91.32
5988;BME280;3021;51.000;6.980;2023-04-26T13:28:58;67895.88;;;14.31;93.56
5988;BME280;3021;51.000;6.980;2023-04-26T13:31:23;67926.47;;;14.56;92.67
5988;BME280;3021;51.000;6.980;2023-04-26T13:33:49;67913.13;;;14.44;91.70
5988;BME280;3021;51.000;6.980;2023-04-26T13:36:15;67888.22;;;14.22;93.49
5988;BME280;3021;51.000;6.980;2023-04-26T13:38:41;67874.28;;;14.10;93.97
5988;BME280;3021;51.000;6.980;2023-04-26T13:41:07;67850.25;;;13.93;97.07